Big Bear Station Historical Data
Daily Summary for March 16, 2019 Units:  English    Metric   Both
Next Day »
Daily Weekly Monthly Yearly Custom
  High: Low: Average:
Temperature: 50.5 °F 25.7 °F 36 °F
Dew Point: 28.2 °F 16.5 °F 22.8 °F
Humidity: 85% 36% 60%
Wind Speed: 6.3mph 0.0mph 0.7mph
Wind Gust: -999.0mph - -
Wind- - WSW
Pressure: 23.56 in 23.49 in -
Precipitation: 0.00 in    
Historical Graphs
 
 
Tabular Data for March 16, 2019
Time Temperature Dew Point Pressure Wind Wind Speed Wind Gust Humidity Rainfall Rate (Hourly)
00:02 28.2 °F 16.8 °F 23.51 in Calm   -999.0 mph 62% 0.00 in
00:17 28.2 °F 16.5 °F 23.51 in Calm   -999.0 mph 61% 0.00 in
00:33 28.2 °F 16.8 °F 23.50 in Calm   -999.0 mph 62% 0.00 in
00:48 28.0 °F 16.7 °F 23.50 in Calm   -999.0 mph 62% 0.00 in
01:03 28.0 °F 17.0 °F 23.50 in Calm   -999.0 mph 63% 0.00 in
01:18 28.4 °F 18.1 °F 23.50 in Calm   -999.0 mph 65% 0.00 in
01:33 28.2 °F 18.3 °F 23.50 in Calm   -999.0 mph 66% 0.00 in
01:49 27.7 °F 17.5 °F 23.50 in Calm   -999.0 mph 65% 0.00 in
02:04 27.5 °F 17.6 °F 23.50 in Calm   -999.0 mph 66% 0.00 in
02:19 28.2 °F 17.9 °F 23.50 in Calm   -999.0 mph 65% 0.00 in
02:34 28.2 °F 17.2 °F 23.50 in Calm   -999.0 mph 63% 0.00 in
02:49 27.9 °F 17.7 °F 23.50 in Calm   -999.0 mph 65% 0.00 in
03:05 27.3 °F 17.8 °F 23.50 in Calm   -999.0 mph 67% 0.00 in
03:20 27.1 °F 18.3 °F 23.49 in Calm   -999.0 mph 69% 0.00 in
03:35 27.3 °F 17.8 °F 23.49 in Calm   -999.0 mph 67% 0.00 in
03:50 26.8 °F 18.0 °F 23.49 in Calm   -999.0 mph 69% 0.00 in
04:06 26.8 °F 18.3 °F 23.49 in Calm   -999.0 mph 70% 0.00 in
04:21 26.6 °F 18.8 °F 23.49 in Calm   -999.0 mph 72% 0.00 in
04:36 26.4 °F 18.9 °F 23.49 in Calm   -999.0 mph 73% 0.00 in
04:51 26.2 °F 19.0 °F 23.49 in Calm   -999.0 mph 74% 0.00 in
05:06 26.2 °F 19.4 °F 23.49 in Calm   -999.0 mph 75% 0.00 in
05:22 26.4 °F 19.6 °F 23.49 in Calm   -999.0 mph 75% 0.00 in
05:37 26.1 °F 18.9 °F 23.49 in Calm   -999.0 mph 74% 0.00 in
05:52 26.1 °F 19.3 °F 23.50 in Calm   -999.0 mph 75% 0.00 in
06:07 26.1 °F 19.3 °F 23.50 in Calm   -999.0 mph 75% 0.00 in
06:22 25.7 °F 19.2 °F 23.50 in Calm   -999.0 mph 76% 0.00 in
06:38 26.4 °F 19.2 °F 23.50 in Calm   -999.0 mph 74% 0.00 in
06:53 26.4 °F 18.3 °F 23.51 in Calm   -999.0 mph 71% 0.00 in
07:08 27.1 °F 18.6 °F 23.51 in Calm   -999.0 mph 70% 0.00 in
07:23 27.1 °F 18.3 °F 23.51 in Calm   -999.0 mph 69% 0.00 in
07:38 27.5 °F 18.3 °F 23.51 in Calm   -999.0 mph 68% 0.00 in
07:54 28.2 °F 18.6 °F 23.51 in Calm   -999.0 mph 67% 0.00 in
08:09 28.9 °F 18.6 °F 23.52 in Calm   -999.0 mph 65% 0.00 in
08:24 32.0 °F 19.3 °F 23.52 in Calm   -999.0 mph 59% 0.00 in
08:39 32.9 °F 19.7 °F 23.53 in Calm   -999.0 mph 58% 0.00 in
08:55 33.3 °F 20.1 °F 23.53 in SE 2.7 mph -999.0 mph 58% 0.00 in
09:10 34.0 °F 20.4 °F 23.53 in Calm   -999.0 mph 57% 0.00 in
09:25 35.1 °F 20.1 °F 23.53 in Calm   -999.0 mph 54% 0.00 in
09:40 36.1 °F 20.6 °F 23.54 in Calm   -999.0 mph 53% 0.00 in
09:55 37.8 °F 21.7 °F 23.54 in NNW 1.1 mph -999.0 mph 52% 0.00 in
10:11 38.3 °F 22.7 °F 23.54 in Calm   -999.0 mph 53% 0.00 in
10:26 39.2 °F 22.1 °F 23.54 in NE 2.2 mph -999.0 mph 50% 0.00 in
10:41 40.1 °F 23.9 °F 23.54 in NNE 2.2 mph -999.0 mph 52% 0.00 in
10:56 42.4 °F 24.1 °F 23.54 in WNW 1.7 mph -999.0 mph 48% 0.00 in
11:12 43.5 °F 24.6 °F 23.54 in Calm   -999.0 mph 47% 0.00 in
11:27 45.0 °F 24.9 °F 23.53 in Calm   -999.0 mph 45% 0.00 in
11:42 47.3 °F 25.4 °F 23.53 in Calm   -999.0 mph 42% 0.00 in
11:57 47.3 °F 25.4 °F 23.53 in Calm   -999.0 mph 42% 0.00 in
12:12 48.0 °F 26.6 °F 23.53 in NW 2.2 mph -999.0 mph 43% 0.00 in
12:28 48.6 °F 27.1 °F 23.52 in NNW 5.8 mph -999.0 mph 43% 0.00 in
12:43 49.1 °F 26.4 °F 23.52 in Calm   -999.0 mph 41% 0.00 in
12:58 50.2 °F 26.8 °F 23.52 in Calm   -999.0 mph 40% 0.00 in
13:13 50.2 °F 24.9 °F 23.52 in North 1.7 mph -999.0 mph 37% 0.00 in
13:29 50.5 °F 25.2 °F 23.52 in West 1.7 mph -999.0 mph 37% 0.00 in
13:44 50.2 °F 24.3 °F 23.52 in NW 4.7 mph -999.0 mph 36% 0.00 in
13:59 50.0 °F 24.7 °F 23.51 in East 2.7 mph -999.0 mph 37% 0.00 in
14:14 48.6 °F 24.7 °F 23.51 in SSE 5.3 mph -999.0 mph 39% 0.00 in
14:30 49.6 °F 26.3 °F 23.51 in NNW 1.7 mph -999.0 mph 40% 0.00 in
14:45 48.6 °F 24.7 °F 23.50 in South 1.7 mph -999.0 mph 39% 0.00 in
15:00 48.2 °F 26.7 °F 23.50 in Calm   -999.0 mph 43% 0.00 in
15:16 47.3 °F 26.5 °F 23.51 in Calm   -999.0 mph 44% 0.00 in
15:31 48.4 °F 26.3 °F 23.51 in West 2.7 mph -999.0 mph 42% 0.00 in
15:46 47.3 °F 26.5 °F 23.51 in NW 6.3 mph -999.0 mph 44% 0.00 in
16:01 47.5 °F 27.2 °F 23.51 in ESE 2.2 mph -999.0 mph 45% 0.00 in
16:16 47.3 °F 27.0 °F 23.51 in WNW 2.7 mph -999.0 mph 45% 0.00 in
16:32 46.6 °F 27.4 °F 23.51 in NNW 5.3 mph -999.0 mph 47% 0.00 in
16:47 46.4 °F 26.2 °F 23.51 in WNW 3.2 mph -999.0 mph 45% 0.00 in
17:02 46.2 °F 27.1 °F 23.51 in Calm   -999.0 mph 47% 0.00 in
17:18 46.0 °F 26.9 °F 23.51 in NNE 1.1 mph -999.0 mph 47% 0.00 in
17:33 45.9 °F 26.8 °F 23.51 in North 1.1 mph -999.0 mph 47% 0.00 in
17:48 44.4 °F 26.9 °F 23.51 in Calm   -999.0 mph 50% 0.00 in
18:03 43.7 °F 26.3 °F 23.51 in Calm   -999.0 mph 50% 0.00 in
18:18 42.4 °F 26.9 °F 23.51 in Calm   -999.0 mph 54% 0.00 in
18:34 41.7 °F 26.3 °F 23.51 in Calm   -999.0 mph 54% 0.00 in
18:49 40.6 °F 27.0 °F 23.52 in Calm   -999.0 mph 58% 0.00 in
19:04 39.4 °F 26.3 °F 23.52 in Calm   -999.0 mph 59% 0.00 in
19:19 38.1 °F 26.2 °F 23.53 in Calm   -999.0 mph 62% 0.00 in
19:34 36.9 °F 25.9 °F 23.53 in Calm   -999.0 mph 64% 0.00 in
19:50 36.0 °F 25.4 °F 23.52 in Calm   -999.0 mph 65% 0.00 in
20:05 35.1 °F 26.0 °F 23.53 in Calm   -999.0 mph 69% 0.00 in
20:20 34.5 °F 27.7 °F 23.53 in Calm   -999.0 mph 76% 0.00 in
20:35 34.3 °F 28.2 °F 23.54 in Calm   -999.0 mph 78% 0.00 in
20:51 34.0 °F 27.2 °F 23.54 in Calm   -999.0 mph 76% 0.00 in
21:06 33.1 °F 27.0 °F 23.54 in Calm   -999.0 mph 78% 0.00 in
21:21 33.1 °F 26.7 °F 23.54 in Calm   -999.0 mph 77% 0.00 in
21:36 32.5 °F 26.1 °F 23.54 in Calm   -999.0 mph 77% 0.00 in
21:51 32.2 °F 26.4 °F 23.55 in Calm   -999.0 mph 79% 0.00 in
22:07 31.8 °F 26.6 °F 23.55 in Calm   -999.0 mph 81% 0.00 in
22:22 31.5 °F 25.7 °F 23.55 in Calm   -999.0 mph 79% 0.00 in
22:37 30.9 °F 25.8 °F 23.55 in Calm   -999.0 mph 81% 0.00 in
22:52 30.7 °F 25.6 °F 23.56 in Calm   -999.0 mph 81% 0.00 in
23:07 30.2 °F 24.8 °F 23.56 in Calm   -999.0 mph 80% 0.00 in
23:23 29.8 °F 24.7 °F 23.56 in Calm   -999.0 mph 81% 0.00 in
23:38 29.3 °F 24.8 °F 23.56 in Calm   -999.0 mph 83% 0.00 in
23:53 28.8 °F 24.9 °F 23.55 in Calm   -999.0 mph 85% 0.00 in
Big Bear CA Weather